Terminal Aerodrome Forecast
Issued by NWS

Home | Current Version | Previous Version | Text Only | Print | Product List | Glossary On
Versions: 1 2 3 4 5 6 7 8 9 10 11 12 13 14 15 16 17 18 19 20 21
000
FTUS46 KMFR 281738
TAFRBG
TAF
KRBG 281738Z 2818/0118 36008KT P6SM SCT020
     FM282200 36015G22KT P6SM SKC
     FM010200 01007KT P6SM SKC
     FM010800 VRB02KT P6SM SKC=

USA.gov is the U.S. government's official web portal to all federal, state and local government web resources and services.